createdAt,value
2022-08-17T00:02:25.231Z,21.73
2022-08-17T00:07:31.102Z,21.71
2022-08-17T00:12:44.601Z,21.58
2022-08-17T00:17:48.469Z,21.55
2022-08-17T00:23:03.654Z,21.52
2022-08-17T00:28:07.250Z,21.44
2022-08-17T00:33:16.352Z,21.31
2022-08-17T00:38:21.459Z,21.28
2022-08-17T00:43:32.760Z,21.38
2022-08-17T00:48:35.944Z,21.44
2022-08-17T00:53:44.625Z,21.30
2022-08-17T00:58:47.629Z,21.21
2022-08-17T01:03:51.917Z,21.00
2022-08-17T01:08:57.948Z,20.94
2022-08-17T01:14:00.989Z,21.12
2022-08-17T01:19:07.227Z,20.91
2022-08-17T01:24:11.309Z,20.83
2022-08-17T01:29:14.538Z,20.94
2022-08-17T01:34:18.470Z,20.93
2022-08-17T01:39:26.353Z,20.69
2022-08-17T01:44:29.257Z,20.27
2022-08-17T01:49:32.018Z,20.25
2022-08-17T01:54:37.568Z,19.67
2022-08-17T01:59:40.330Z,20.17
2022-08-17T02:04:43.057Z,20.23
2022-08-17T02:09:52.651Z,20.40
2022-08-17T02:14:55.606Z,20.29
2022-08-17T02:19:58.339Z,20.28
2022-08-17T02:25:03.171Z,20.11
2022-08-17T02:30:59.655Z,19.99
2022-08-17T02:35:30.102Z,20.21
2022-08-17T02:40:36.363Z,20.25
2022-08-17T02:45:39.611Z,20.10
2022-08-17T02:50:42.341Z,20.11
2022-08-17T02:55:46.453Z,20.17
2022-08-17T03:00:49.233Z,19.95
2022-08-17T03:05:53.075Z,20.09
2022-08-17T03:10:57.149Z,19.92
2022-08-17T03:15:59.901Z,19.77
2022-08-17T03:21:04.305Z,19.77
2022-08-17T03:26:12.328Z,19.69
2022-08-17T03:31:18.569Z,19.72
2022-08-17T03:36:21.284Z,19.77
2022-08-17T03:41:25.376Z,19.54
2022-08-17T03:46:45.542Z,19.37
2022-08-17T03:52:05.732Z,19.56
2022-08-17T03:57:11.526Z,19.46
2022-08-17T04:02:17.301Z,19.66
2022-08-17T04:07:20.674Z,19.71
2022-08-17T04:12:25.498Z,19.55
2022-08-17T04:17:29.954Z,19.52
2022-08-17T04:22:34.356Z,19.61
2022-08-17T04:27:38.645Z,19.72
2022-08-17T04:33:02.905Z,19.51
2022-08-17T04:38:08.574Z,19.74
2022-08-17T04:43:18.819Z,19.63
2022-08-17T04:48:21.891Z,19.77
2022-08-17T04:53:24.602Z,19.97
2022-08-17T04:58:28.706Z,19.99
2022-08-17T05:03:31.911Z,20.08
2022-08-17T05:08:34.864Z,19.74
2022-08-17T05:13:38.994Z,20.08
2022-08-17T05:18:41.707Z,20.08
2022-08-17T05:23:50.281Z,20.03
2022-08-17T05:29:02.535Z,19.99
2022-08-17T05:34:05.608Z,20.23
2022-08-17T05:39:08.401Z,20.53
2022-08-17T05:44:19.780Z,20.38
2022-08-17T05:49:27.204Z,20.62
2022-08-17T05:54:39.413Z,20.69
2022-08-17T05:59:49.963Z,20.83
2022-08-17T06:05:03.040Z,20.85
2022-08-17T06:10:12.023Z,21.02
2022-08-17T06:15:24.798Z,21.09
2022-08-17T06:20:33.038Z,21.08
2022-08-17T06:25:39.781Z,21.14
2022-08-17T06:30:59.447Z,21.10
2022-08-17T06:36:09.632Z,21.12
2022-08-17T06:41:18.527Z,21.24
2022-08-17T06:46:27.424Z,21.40
2022-08-17T06:51:36.115Z,21.58
2022-08-17T06:56:54.203Z,21.64
2022-08-17T07:02:04.741Z,21.75
2022-08-17T07:07:24.157Z,21.88
2022-08-17T07:12:31.401Z,22.21
2022-08-17T07:17:47.782Z,22.08
2022-08-17T07:22:59.831Z,22.29
2022-08-17T07:28:07.259Z,22.50
2022-08-17T07:33:13.906Z,22.49
2022-08-17T07:38:24.298Z,22.52
2022-08-17T07:43:29.716Z,22.55
2022-08-17T07:48:38.713Z,22.67
2022-08-17T07:53:41.645Z,22.79
2022-08-17T07:58:46.731Z,23.14
2022-08-17T08:03:52.601Z,23.19
2022-08-17T08:08:57.163Z,23.29
2022-08-17T08:14:19.431Z,23.76
2022-08-17T08:19:26.191Z,24.09
2022-08-17T08:24:44.177Z,24.06
2022-08-17T08:29:52.631Z,24.05
2022-08-17T08:35:04.164Z,24.67
2022-08-17T08:40:14.674Z,24.73
2022-08-17T08:45:21.442Z,25.19
2022-08-17T08:50:37.060Z,25.62
2022-08-17T08:55:53.534Z,25.60
2022-08-17T09:00:59.524Z,25.73
2022-08-17T09:06:32.096Z,25.94
2022-08-17T09:12:01.022Z,26.01
2022-08-17T09:17:08.257Z,26.30
2022-08-17T09:22:26.496Z,26.21
2022-08-17T09:27:34.300Z,26.18
2022-08-17T09:32:41.313Z,26.42
2022-08-17T09:37:52.534Z,26.51
2022-08-17T09:42:57.547Z,26.46
2022-08-17T09:48:07.701Z,26.50
2022-08-17T09:53:11.957Z,26.99
2022-08-17T09:58:22.466Z,27.43
2022-08-17T10:03:55.725Z,27.55
2022-08-17T10:09:08.277Z,27.81
2022-08-17T10:14:36.742Z,27.76
2022-08-17T10:19:44.265Z,28.04
2022-08-17T10:25:23.919Z,28.43
2022-08-17T10:30:30.999Z,28.31
2022-08-17T10:35:39.320Z,28.32
2022-08-17T10:40:49.598Z,28.44
2022-08-17T10:46:10.624Z,28.14
2022-08-17T10:51:37.890Z,28.02
2022-08-17T10:56:46.279Z,27.85
2022-08-17T11:02:05.067Z,27.77
2022-08-17T11:07:14.577Z,27.58
2022-08-17T11:12:28.376Z,27.58
2022-08-17T11:17:52.892Z,27.64
2022-08-17T11:23:19.598Z,27.78
2022-08-17T11:28:26.705Z,27.68
2022-08-17T11:33:53.924Z,26.16
2022-08-17T11:39:02.157Z,26.63
2022-08-17T11:44:18.156Z,26.90
2022-08-17T11:49:48.121Z,26.64
2022-08-17T11:54:51.284Z,26.29
2022-08-17T11:59:58.798Z,26.25
2022-08-17T12:05:12.311Z,26.36
2022-08-17T12:10:17.212Z,25.85
2022-08-17T12:15:29.529Z,25.78
2022-08-17T12:20:35.436Z,25.52
2022-08-17T12:25:41.936Z,25.41
2022-08-17T12:30:52.180Z,25.68
2022-08-17T12:35:59.641Z,25.82
2022-08-17T12:41:24.345Z,25.69
2022-08-17T12:46:28.643Z,25.56
2022-08-17T12:51:31.715Z,26.08
2022-08-17T12:56:34.926Z,26.53
2022-08-17T13:01:41.707Z,26.91
2022-08-17T13:06:50.892Z,27.06
2022-08-17T13:12:02.799Z,26.78
2022-08-17T13:17:13.523Z,27.10
2022-08-17T13:22:16.616Z,26.93
2022-08-17T13:27:21.427Z,26.98
2022-08-17T13:32:35.825Z,27.09
2022-08-17T13:37:38.568Z,27.20
2022-08-17T13:42:51.763Z,27.26
2022-08-17T13:48:07.978Z,27.58
2022-08-17T13:53:19.922Z,27.61
2022-08-17T13:58:25.430Z,27.51
2022-08-17T14:03:29.541Z,27.48
2022-08-17T14:08:33.162Z,27.56
2022-08-17T14:13:36.466Z,27.54
2022-08-17T14:18:56.687Z,28.04
2022-08-17T14:24:00.090Z,28.44
2022-08-17T14:29:02.866Z,28.70
2022-08-17T14:34:07.476Z,28.91
2022-08-17T14:39:10.561Z,28.36
2022-08-17T14:44:15.086Z,28.27
2022-08-17T14:49:20.606Z,28.41
2022-08-17T14:54:33.216Z,28.22
2022-08-17T14:59:37.218Z,28.35
2022-08-17T15:04:45.581Z,28.24
2022-08-17T15:09:48.569Z,28.31
2022-08-17T15:14:51.283Z,28.62
2022-08-17T15:19:55.406Z,28.54
2022-08-17T15:24:58.174Z,28.33
2022-08-17T15:30:01.261Z,28.42
2022-08-17T15:35:08.762Z,28.37
2022-08-17T15:40:13.400Z,28.15
2022-08-17T15:45:16.775Z,28.33
2022-08-17T15:50:20.958Z,28.33
2022-08-17T15:55:24.366Z,28.20
2022-08-17T16:00:28.472Z,28.31
2022-08-17T16:05:32.741Z,28.32
2022-08-17T16:10:36.082Z,28.25
2022-08-17T16:15:38.925Z,28.28
2022-08-17T16:20:43.114Z,28.20
2022-08-17T16:25:53.534Z,28.13
2022-08-17T16:30:57.066Z,27.55
2022-08-17T16:36:01.294Z,27.45
2022-08-17T16:41:04.780Z,27.24
2022-08-17T16:46:07.632Z,27.03
2022-08-17T16:51:11.701Z,26.99
2022-08-17T16:56:15.170Z,26.86
2022-08-17T17:01:17.942Z,26.76
2022-08-17T17:06:43.664Z,26.65
2022-08-17T17:11:50.761Z,26.71
2022-08-17T17:17:00.726Z,26.43
2022-08-17T17:22:11.168Z,26.31
2022-08-17T17:27:19.961Z,26.20
2022-08-17T17:32:27.646Z,26.07
2022-08-17T17:37:33.840Z,25.94
2022-08-17T17:42:40.367Z,25.65
2022-08-17T17:47:43.518Z,25.52
2022-08-17T17:52:54.729Z,25.71
2022-08-17T17:58:04.548Z,25.52
2022-08-17T18:03:22.855Z,24.87
2022-08-17T18:08:40.213Z,24.52
2022-08-17T18:13:57.583Z,24.50
2022-08-17T18:19:01.955Z,24.55
2022-08-17T18:24:08.454Z,24.76
2022-08-17T18:29:34.404Z,24.39
2022-08-17T18:34:47.182Z,24.29
2022-08-17T18:39:52.352Z,24.23
2022-08-17T18:44:56.579Z,24.03
2022-08-17T18:50:02.321Z,24.02
2022-08-17T18:55:09.948Z,23.90
2022-08-17T19:00:16.226Z,23.76
2022-08-17T19:05:30.010Z,23.83
2022-08-17T19:10:46.354Z,23.57
2022-08-17T19:16:12.058Z,23.45
2022-08-17T19:21:19.571Z,23.43
2022-08-17T19:26:50.756Z,23.28
2022-08-17T19:31:48.833Z,23.48
2022-08-17T19:36:55.970Z,23.29
2022-08-17T19:42:03.082Z,23.22
2022-08-17T19:47:19.571Z,23.19
2022-08-17T19:52:46.755Z,23.06
2022-08-17T19:58:00.864Z,22.98
2022-08-17T20:03:08.025Z,22.94
2022-08-17T20:08:14.677Z,22.63
2022-08-17T20:13:32.998Z,22.64
2022-08-17T20:18:38.365Z,22.50
2022-08-17T20:23:53.668Z,22.93
2022-08-17T20:29:10.921Z,22.94
2022-08-17T20:34:33.764Z,22.71
2022-08-17T20:39:42.867Z,22.79
2022-08-17T20:44:48.366Z,22.80
2022-08-17T20:49:53.357Z,22.72
2022-08-17T20:54:58.125Z,22.61
2022-08-17T21:00:14.448Z,22.49
2022-08-17T21:05:38.665Z,22.44
2022-08-17T21:10:43.741Z,22.39
2022-08-17T21:15:53.549Z,22.36
2022-08-17T21:21:04.622Z,22.27
2022-08-17T21:26:28.111Z,22.17
2022-08-17T21:31:36.454Z,22.13
2022-08-17T21:36:39.694Z,21.98
2022-08-17T21:41:48.193Z,21.89
2022-08-17T21:46:54.200Z,21.81
2022-08-17T21:51:57.740Z,21.82
2022-08-17T21:57:01.989Z,21.70
2022-08-17T22:02:07.973Z,21.56
2022-08-17T22:07:12.865Z,21.31
2022-08-17T22:12:18.693Z,21.01
2022-08-17T22:17:24.633Z,21.11
2022-08-17T22:22:33.595Z,21.10
2022-08-17T22:27:55.761Z,21.19
2022-08-17T22:33:00.774Z,21.15
2022-08-17T22:38:25.701Z,21.09
2022-08-17T22:43:29.733Z,21.10
2022-08-17T22:48:34.019Z,21.10
2022-08-17T22:53:54.617Z,20.92
2022-08-17T22:59:16.085Z,20.76
2022-08-17T23:04:33.242Z,20.73
2022-08-17T23:09:36.741Z,20.73
2022-08-17T23:14:42.351Z,20.71
2022-08-17T23:19:49.209Z,20.46
2022-08-17T23:24:52.290Z,20.51
2022-08-17T23:29:55.497Z,20.46
2022-08-17T23:34:59.517Z,20.46
2022-08-17T23:40:02.407Z,20.55
2022-08-17T23:45:05.783Z,20.41
2022-08-17T23:50:10.965Z,20.39
2022-08-17T23:55:14.752Z,20.24
